Terminal Aerodrome Forecast
Issued by NWS Cleveland, OH

Home | Current Version | Previous Version | Graphics & Text | Print | Product List | Glossary On
Versions: 1 2 3 4 5 6 7 8 9 10 11 12 13 14 15 16 17 18 19 20 21 22 23 24 25 26 27 28 29 30 31 32 33 34 35
000
FTUS41 KCLE 270800 AAA
TAFCLE
TAF AMD
KCLE 270850Z 2709/2812 32006KT 4SM -SHSN SCT008 OVC030
      TEMPO 2709/2711 2SM -SHSN BKN008
     FM271400 33010KT P6SM OVC025
     FM271900 29010KT P6SM OVC035
     FM272200 29010KT 4SM -SHSN OVC015
     FM280100 28010KT 6SM -SHSN SCT008 OVC012=

USA.gov is the U.S. government's official web portal to all federal, state and local government web resources and services.